createdAt,value
2019-03-15T00:01:54.130Z,5.37
2019-03-15T00:04:21.500Z,6.43
2019-03-15T00:06:48.959Z,4.20
2019-03-15T00:09:16.289Z,3.73
2019-03-15T00:11:43.651Z,4.87
2019-03-15T00:14:10.956Z,7.70
2019-03-15T00:16:38.298Z,6.97
2019-03-15T00:19:05.609Z,6.00
2019-03-15T00:21:32.941Z,6.73
2019-03-15T00:24:00.323Z,4.37
2019-03-15T00:26:27.640Z,1.93
2019-03-15T00:28:54.939Z,1.27
2019-03-15T00:31:22.322Z,1.07
2019-03-15T00:33:50.667Z,2.43
2019-03-15T00:36:18.015Z,1.90
2019-03-15T00:38:45.345Z,1.97
2019-03-15T00:41:12.686Z,4.30
2019-03-15T00:43:39.991Z,1.03
2019-03-15T00:46:07.323Z,0.90
2019-03-15T00:48:34.662Z,1.33
2019-03-15T00:51:01.972Z,1.93
2019-03-15T00:53:29.307Z,0.80
2019-03-15T00:55:56.624Z,1.57
2019-03-15T00:58:24.006Z,1.47
2019-03-15T01:00:51.613Z,0.90
2019-03-15T01:03:18.969Z,0.97
2019-03-15T01:05:46.276Z,1.33
2019-03-15T01:08:13.632Z,1.20
2019-03-15T01:10:40.936Z,1.33
2019-03-15T01:13:08.266Z,1.23
2019-03-15T01:15:35.605Z,1.97
2019-03-15T01:18:03.013Z,1.23
2019-03-15T01:20:30.320Z,2.03
2019-03-15T01:22:57.669Z,1.83
2019-03-15T01:25:24.976Z,2.63
2019-03-15T01:27:52.504Z,2.40
2019-03-15T01:30:19.826Z,1.50
2019-03-15T01:32:47.287Z,2.87
2019-03-15T01:35:14.690Z,2.90
2019-03-15T01:37:42.009Z,2.50
2019-03-15T01:40:09.347Z,2.57
2019-03-15T01:42:36.670Z,2.70
2019-03-15T01:45:04.631Z,2.50
2019-03-15T01:47:31.956Z,3.00
2019-03-15T01:49:59.290Z,3.73
2019-03-15T01:52:26.600Z,3.37
2019-03-15T01:54:53.916Z,4.40
2019-03-15T01:57:21.288Z,2.90
2019-03-15T01:59:48.620Z,4.23
2019-03-15T02:02:15.922Z,4.77
2019-03-15T02:04:43.248Z,3.03
2019-03-15T02:07:10.670Z,2.27
2019-03-15T02:09:37.988Z,2.70
2019-03-15T02:12:05.338Z,4.13
2019-03-15T02:14:32.654Z,3.93
2019-03-15T02:17:00.562Z,3.63
2019-03-15T02:19:28.000Z,1.97
2019-03-15T02:21:55.307Z,2.23
2019-03-15T02:24:22.649Z,1.43
2019-03-15T02:26:49.942Z,1.20
2019-03-15T02:29:17.259Z,2.80
2019-03-15T02:31:44.630Z,1.60
2019-03-15T02:34:11.967Z,2.20
2019-03-15T02:36:40.099Z,1.57
2019-03-15T02:39:07.701Z,1.33
2019-03-15T02:41:35.009Z,4.33
2019-03-15T02:44:02.352Z,1.90
2019-03-15T02:46:29.652Z,1.80
2019-03-15T02:48:56.978Z,1.53
2019-03-15T02:51:24.272Z,1.90
2019-03-15T02:53:51.637Z,1.60
2019-03-15T02:56:18.952Z,1.73
2019-03-15T02:58:46.294Z,2.90
2019-03-15T03:01:13.594Z,1.87
2019-03-15T03:03:40.910Z,2.20
2019-03-15T03:06:08.234Z,1.97
2019-03-15T03:08:35.541Z,2.13
2019-03-15T03:11:02.878Z,1.87
2019-03-15T03:13:30.204Z,1.90
2019-03-15T03:15:57.538Z,2.00
2019-03-15T03:18:24.885Z,1.90
2019-03-15T03:20:52.181Z,4.07
2019-03-15T03:23:19.534Z,3.07
2019-03-15T03:25:46.900Z,3.67
2019-03-15T03:28:14.264Z,3.53
2019-03-15T03:30:41.562Z,3.33
2019-03-15T03:33:08.893Z,3.13
2019-03-15T03:35:36.307Z,3.63
2019-03-15T03:38:03.984Z,3.57
2019-03-15T03:40:31.328Z,6.53
2019-03-15T03:42:58.630Z,4.23
2019-03-15T03:45:25.939Z,3.73
2019-03-15T03:47:53.273Z,3.67
2019-03-15T03:50:20.586Z,4.23
2019-03-15T03:52:47.926Z,3.87
2019-03-15T03:55:15.233Z,4.07
2019-03-15T03:57:42.564Z,5.20
2019-03-15T04:00:11.137Z,4.80
2019-03-15T04:02:38.469Z,5.87
2019-03-15T04:05:06.401Z,5.50
2019-03-15T04:07:33.761Z,4.63
2019-03-15T04:10:01.028Z,5.37
2019-03-15T04:12:28.365Z,6.13
2019-03-15T04:14:55.667Z,4.97
2019-03-15T04:17:22.999Z,3.47
2019-03-15T04:19:50.580Z,5.80
2019-03-15T04:22:18.039Z,3.67
2019-03-15T04:24:45.371Z,3.87
2019-03-15T04:27:12.698Z,5.23
2019-03-15T04:29:40.003Z,5.07
2019-03-15T04:32:07.437Z,5.27
2019-03-15T04:34:34.753Z,4.67
2019-03-15T04:37:02.073Z,4.10
2019-03-15T04:39:29.452Z,4.87
2019-03-15T04:41:56.755Z,5.87
2019-03-15T04:44:24.094Z,5.30
2019-03-15T04:46:51.407Z,5.33
2019-03-15T04:49:18.740Z,6.03
2019-03-15T04:51:46.037Z,7.07
2019-03-15T04:54:13.434Z,4.67
2019-03-15T04:56:40.734Z,5.27
2019-03-15T04:59:08.055Z,7.97
2019-03-15T05:01:35.382Z,6.30
2019-03-15T05:04:02.694Z,5.27
2019-03-15T05:06:30.040Z,4.20
2019-03-15T05:08:57.337Z,5.80
2019-03-15T05:11:24.705Z,5.53
2019-03-15T05:13:52.036Z,5.57
2019-03-15T05:16:19.315Z,5.33
2019-03-15T05:18:46.632Z,6.70
2019-03-15T05:21:13.942Z,7.60
2019-03-15T05:23:41.274Z,5.23
2019-03-15T05:26:08.578Z,6.03
2019-03-15T05:28:36.059Z,6.07
2019-03-15T05:31:03.288Z,6.83
2019-03-15T05:33:30.623Z,7.70
2019-03-15T05:35:57.995Z,11.23
2019-03-15T05:38:26.731Z,7.13
2019-03-15T05:40:54.022Z,7.63
2019-03-15T05:43:21.355Z,10.53
2019-03-15T05:45:48.671Z,11.33
2019-03-15T05:48:15.996Z,8.80
2019-03-15T05:50:43.314Z,7.60
2019-03-15T05:53:10.628Z,8.63
2019-03-15T05:55:38.075Z,8.13
2019-03-15T05:58:05.800Z,8.63
2019-03-15T06:00:33.109Z,12.90
2019-03-15T06:03:00.452Z,10.40
2019-03-15T06:05:27.771Z,12.30
2019-03-15T06:07:55.113Z,9.30
2019-03-15T06:10:22.488Z,7.03
2019-03-15T06:12:49.848Z,7.77
2019-03-15T06:15:17.189Z,9.87
2019-03-15T06:17:44.582Z,12.40
2019-03-15T06:20:12.484Z,12.53
2019-03-15T06:22:39.914Z,12.50
2019-03-15T06:25:07.889Z,10.13
2019-03-15T06:27:35.278Z,11.97
2019-03-15T06:30:02.672Z,8.23
2019-03-15T06:32:30.042Z,8.33
2019-03-15T06:34:57.344Z,9.90
2019-03-15T06:37:24.774Z,5.87
2019-03-15T06:39:52.117Z,10.10
2019-03-15T06:42:19.412Z,7.53
2019-03-15T06:44:57.363Z,6.13
2019-03-15T06:47:15.748Z,6.67
2019-03-15T06:49:43.095Z,7.90
2019-03-15T06:52:10.385Z,6.03
2019-03-15T06:54:37.708Z,9.77
2019-03-15T06:57:05.032Z,9.47
2019-03-15T06:59:32.354Z,7.13
2019-03-15T07:01:59.711Z,9.97
2019-03-15T07:04:27.007Z,6.47
2019-03-15T07:06:54.320Z,8.60
2019-03-15T07:09:21.809Z,11.20
2019-03-15T07:11:49.124Z,9.33
2019-03-15T07:14:16.531Z,10.23
2019-03-15T07:16:43.892Z,9.00
2019-03-15T07:19:11.242Z,9.37
2019-03-15T07:21:38.590Z,14.10
2019-03-15T07:24:05.990Z,10.97
2019-03-15T07:26:33.301Z,6.63
2019-03-15T07:29:00.687Z,10.73
2019-03-15T07:31:28.025Z,7.83
2019-03-15T07:33:55.393Z,8.37
2019-03-15T07:36:23.180Z,12.10
2019-03-15T07:38:50.551Z,9.87
2019-03-15T07:41:17.920Z,9.73
2019-03-15T07:43:45.260Z,6.93
2019-03-15T07:46:12.613Z,8.70
2019-03-15T07:48:39.967Z,12.37
2019-03-15T07:51:07.284Z,13.80
2019-03-15T07:53:35.480Z,8.53
2019-03-15T07:56:03.034Z,12.70
2019-03-15T07:58:30.368Z,16.90
2019-03-15T08:00:57.668Z,15.07
2019-03-15T08:03:25.427Z,13.13
2019-03-15T08:05:52.714Z,12.63
2019-03-15T08:08:20.089Z,10.70
2019-03-15T08:10:47.406Z,11.03
2019-03-15T08:13:14.724Z,12.87
2019-03-15T08:15:42.030Z,9.67
2019-03-15T08:18:09.354Z,8.70
2019-03-15T08:20:36.733Z,9.77
2019-03-15T08:23:04.122Z,10.23
2019-03-15T08:25:31.437Z,4.93
2019-03-15T08:27:59.664Z,9.20
2019-03-15T08:30:27.439Z,6.30
2019-03-15T08:32:54.764Z,7.00
2019-03-15T08:35:25.005Z,4.33
2019-03-15T08:37:52.617Z,6.70
2019-03-15T08:40:19.974Z,8.10
2019-03-15T08:42:47.334Z,7.50
2019-03-15T08:45:15.604Z,9.13
2019-03-15T08:47:42.945Z,5.87
2019-03-15T08:50:16.536Z,8.37
2019-03-15T08:52:43.915Z,4.30
2019-03-15T08:55:11.899Z,5.07
2019-03-15T08:57:39.348Z,5.00
2019-03-15T09:00:17.465Z,6.20
2019-03-15T09:02:46.806Z,5.80
2019-03-15T09:05:15.752Z,4.13
2019-03-15T09:07:43.042Z,5.33
2019-03-15T09:10:21.729Z,5.30
2019-03-15T09:12:40.052Z,4.40
2019-03-15T09:15:08.565Z,4.97
2019-03-15T09:17:35.897Z,6.07
2019-03-15T09:20:03.656Z,7.93
2019-03-15T09:22:30.965Z,4.13
2019-03-15T09:24:58.292Z,4.97
2019-03-15T09:27:25.592Z,7.60
2019-03-15T09:29:52.942Z,7.67
2019-03-15T09:32:20.253Z,3.50
2019-03-15T09:34:47.733Z,5.50
2019-03-15T09:37:14.998Z,6.03
2019-03-15T09:39:42.323Z,5.50
2019-03-15T09:42:09.809Z,7.77
2019-03-15T09:44:37.706Z,4.50
2019-03-15T09:47:05.131Z,7.07
2019-03-15T09:49:33.104Z,8.20
2019-03-15T09:52:00.397Z,9.33
2019-03-15T09:54:27.810Z,8.27
2019-03-15T09:56:55.108Z,6.83
2019-03-15T09:59:22.414Z,5.40
2019-03-15T10:01:49.761Z,9.87
2019-03-15T10:04:17.387Z,7.63
2019-03-15T10:06:45.916Z,3.90
2019-03-15T10:09:13.254Z,5.03
2019-03-15T10:11:40.611Z,4.97
2019-03-15T10:14:07.935Z,6.00
2019-03-15T10:16:35.297Z,6.70
2019-03-15T10:19:02.643Z,3.10
2019-03-15T10:21:29.968Z,1.60
2019-03-15T10:23:57.329Z,3.70
2019-03-15T10:26:24.668Z,4.43
2019-03-15T10:28:52.081Z,3.33
2019-03-15T10:31:19.499Z,5.10
2019-03-15T10:33:50.754Z,4.67
2019-03-15T10:36:15.955Z,5.40
2019-03-15T10:38:43.267Z,5.97
2019-03-15T10:41:11.860Z,4.47
2019-03-15T10:43:51.640Z,7.03
2019-03-15T10:46:22.266Z,4.53
2019-03-15T10:48:49.606Z,6.20
2019-03-15T10:51:17.078Z,5.77
2019-03-15T10:53:44.546Z,5.63
2019-03-15T10:56:12.602Z,7.10
2019-03-15T10:58:40.009Z,7.90
2019-03-15T11:01:07.324Z,7.30
2019-03-15T11:03:34.824Z,10.00
2019-03-15T11:06:02.208Z,5.97
2019-03-15T11:08:29.508Z,6.30
2019-03-15T11:10:56.938Z,9.50
2019-03-15T11:13:24.337Z,9.23
2019-03-15T11:15:51.724Z,12.10
2019-03-15T11:18:19.064Z,13.37
2019-03-15T11:20:46.503Z,11.77
2019-03-15T11:23:13.863Z,13.57
2019-03-15T11:25:41.258Z,12.03
2019-03-15T11:28:08.640Z,12.40
2019-03-15T11:30:35.997Z,14.97
2019-03-15T11:33:03.329Z,17.90
2019-03-15T11:35:30.677Z,17.47
2019-03-15T11:37:58.000Z,15.03
2019-03-15T11:40:25.340Z,15.07
2019-03-15T11:42:52.690Z,14.27
2019-03-15T11:45:21.191Z,12.10
2019-03-15T11:48:02.863Z,12.00
2019-03-15T11:50:21.121Z,10.50
2019-03-15T11:52:48.561Z,10.10
2019-03-15T11:55:15.934Z,10.47
2019-03-15T11:57:43.317Z,10.57
2019-03-15T12:00:17.258Z,12.33
2019-03-15T12:02:44.688Z,12.80
2019-03-15T12:05:12.052Z,8.50
2019-03-15T12:07:39.449Z,9.43
2019-03-15T12:10:08.345Z,8.80
2019-03-15T12:12:38.833Z,8.50
2019-03-15T12:15:07.806Z,11.93
2019-03-15T12:17:35.119Z,11.10
2019-03-15T12:20:02.530Z,11.20
2019-03-15T12:22:29.888Z,9.90
2019-03-15T12:24:57.302Z,10.63
2019-03-15T12:27:24.796Z,6.90
2019-03-15T12:29:52.124Z,9.00
2019-03-15T12:32:19.561Z,10.27
2019-03-15T12:34:46.873Z,9.87
2019-03-15T12:37:14.282Z,8.10
2019-03-15T12:39:41.693Z,7.70
2019-03-15T12:42:09.064Z,7.87
2019-03-15T12:44:36.438Z,7.83
2019-03-15T12:47:06.148Z,9.93
2019-03-15T12:49:32.923Z,8.60
2019-03-15T12:52:00.204Z,9.93
2019-03-15T12:54:27.544Z,9.47
2019-03-15T12:56:54.979Z,13.17
2019-03-15T12:59:22.310Z,8.43
2019-03-15T13:01:49.750Z,10.30
2019-03-15T13:04:18.725Z,7.57
2019-03-15T13:06:46.506Z,6.70
2019-03-15T13:09:13.912Z,8.93
2019-03-15T13:11:41.386Z,9.33
2019-03-15T13:14:08.786Z,9.13
2019-03-15T13:16:36.138Z,7.87
2019-03-15T13:19:03.441Z,7.17
2019-03-15T13:21:30.782Z,9.60
2019-03-15T13:23:58.180Z,7.57
2019-03-15T13:26:28.751Z,6.43
2019-03-15T13:28:54.426Z,6.20
2019-03-15T13:31:21.768Z,8.70
2019-03-15T13:33:49.458Z,9.80
2019-03-15T13:36:16.806Z,9.47
2019-03-15T13:38:44.288Z,11.13
2019-03-15T13:41:11.708Z,9.50
2019-03-15T13:43:39.049Z,9.23
2019-03-15T13:46:06.397Z,8.90
2019-03-15T13:48:33.747Z,8.90
2019-03-15T13:51:01.064Z,11.93
2019-03-15T13:53:28.385Z,10.83
2019-03-15T13:55:55.731Z,10.27
2019-03-15T13:58:23.038Z,5.27
2019-03-15T14:00:50.729Z,12.63
2019-03-15T14:03:18.091Z,6.13
2019-03-15T14:05:45.425Z,8.13
2019-03-15T14:08:12.699Z,9.77
2019-03-15T14:10:49.145Z,10.37
2019-03-15T14:13:11.830Z,6.07
2019-03-15T14:15:38.116Z,8.03
2019-03-15T14:18:05.453Z,8.77
2019-03-15T14:20:32.773Z,11.07
2019-03-15T14:23:00.130Z,9.80
2019-03-15T14:25:28.005Z,11.23
2019-03-15T14:27:55.281Z,8.20
2019-03-15T14:30:22.663Z,13.80
2019-03-15T14:32:49.978Z,15.70
2019-03-15T14:35:17.357Z,12.27
2019-03-15T14:37:44.934Z,12.33
2019-03-15T14:40:12.442Z,10.00
2019-03-15T14:42:39.930Z,11.43
2019-03-15T14:45:10.970Z,13.80
2019-03-15T14:47:38.347Z,13.37
2019-03-15T14:50:06.851Z,14.60
2019-03-15T14:52:34.195Z,12.57
2019-03-15T14:55:01.505Z,15.57
2019-03-15T14:57:28.863Z,14.67
2019-03-15T14:59:56.678Z,16.50
2019-03-15T15:02:23.993Z,12.80
2019-03-15T15:04:51.304Z,9.00
2019-03-15T15:07:18.666Z,9.57
2019-03-15T15:09:47.527Z,9.77
2019-03-15T15:12:15.112Z,11.47
2019-03-15T15:14:42.441Z,12.13
2019-03-15T15:17:09.768Z,9.77
2019-03-15T15:19:37.087Z,8.17
2019-03-15T15:22:04.397Z,8.00
2019-03-15T15:24:31.818Z,11.67
2019-03-15T15:27:00.801Z,8.07
2019-03-15T15:29:28.123Z,11.13
2019-03-15T15:31:55.438Z,9.40
2019-03-15T15:34:23.465Z,10.53
2019-03-15T15:36:50.855Z,6.40
2019-03-15T15:39:18.192Z,11.33
2019-03-15T15:41:45.536Z,11.23
2019-03-15T15:44:12.854Z,9.77
2019-03-15T15:46:40.352Z,9.53
2019-03-15T15:49:07.736Z,9.87
2019-03-15T15:51:35.529Z,10.77
2019-03-15T15:54:02.910Z,15.57
2019-03-15T15:56:30.229Z,13.33
2019-03-15T15:58:57.613Z,13.17
2019-03-15T16:01:24.941Z,13.87
2019-03-15T16:03:52.265Z,12.60
2019-03-15T16:06:19.616Z,9.40
2019-03-15T16:08:46.942Z,9.77
2019-03-15T16:11:14.299Z,9.83
2019-03-15T16:13:41.721Z,9.17
2019-03-15T16:16:09.113Z,12.63
2019-03-15T16:18:36.621Z,9.93
2019-03-15T16:21:03.956Z,10.90
2019-03-15T16:23:31.381Z,12.87
2019-03-15T16:25:58.775Z,13.60
2019-03-15T16:28:31.422Z,14.30
2019-03-15T16:30:55.826Z,16.03
2019-03-15T16:33:23.233Z,15.73
2019-03-15T16:35:52.211Z,11.73
2019-03-15T16:38:21.185Z,15.60
2019-03-15T16:40:52.786Z,19.10
2019-03-15T16:43:20.151Z,12.93
2019-03-15T16:45:47.608Z,15.30
2019-03-15T16:48:14.995Z,13.37
2019-03-15T16:50:42.347Z,15.57
2019-03-15T16:53:09.815Z,18.87
2019-03-15T16:55:37.365Z,17.77
2019-03-15T16:58:07.640Z,14.20
2019-03-15T17:00:35.089Z,20.27
2019-03-15T17:03:03.096Z,19.20
2019-03-15T17:05:34.996Z,18.17
2019-03-15T17:08:04.152Z,20.93
2019-03-15T17:10:37.466Z,24.37
2019-03-15T17:13:05.115Z,21.90
2019-03-15T17:15:32.555Z,23.87
2019-03-15T17:17:59.861Z,23.60
2019-03-15T17:20:28.869Z,23.77
2019-03-15T17:22:57.845Z,24.73
2019-03-15T17:25:25.228Z,24.53
2019-03-15T17:27:53.647Z,28.53
2019-03-15T17:30:23.778Z,31.13
2019-03-15T17:32:52.796Z,29.23
2019-03-15T17:35:20.852Z,31.90
2019-03-15T17:37:48.433Z,31.23
2019-03-15T17:40:16.334Z,33.07
2019-03-15T17:42:43.625Z,39.83
2019-03-15T17:45:11.061Z,38.57
2019-03-15T17:47:38.371Z,46.57
2019-03-15T17:50:07.419Z,38.97
2019-03-15T17:52:34.729Z,40.00
2019-03-15T17:55:02.101Z,37.60
2019-03-15T17:57:29.435Z,32.40
2019-03-15T17:59:58.397Z,25.53
2019-03-15T18:02:28.850Z,32.07
2019-03-15T18:04:56.300Z,27.13
2019-03-15T18:07:23.716Z,29.07
2019-03-15T18:09:51.044Z,25.30
2019-03-15T18:12:20.050Z,28.77
2019-03-15T18:14:49.040Z,28.20
2019-03-15T18:17:16.366Z,25.37
2019-03-15T18:19:44.916Z,24.80
2019-03-15T18:22:13.628Z,24.77
2019-03-15T18:24:44.779Z,21.60
2019-03-15T18:27:12.235Z,16.13
2019-03-15T18:29:41.059Z,18.50
2019-03-15T18:32:12.710Z,19.80
2019-03-15T18:34:40.125Z,19.30
2019-03-15T18:37:09.357Z,21.33
2019-03-15T18:39:36.805Z,19.43
2019-03-15T18:42:04.131Z,20.67
2019-03-15T18:44:31.582Z,17.67
2019-03-15T18:46:59.046Z,17.03
2019-03-15T18:49:26.348Z,14.07
2019-03-15T18:51:53.745Z,19.77
2019-03-15T18:54:21.137Z,12.10
2019-03-15T18:56:48.487Z,12.73
2019-03-15T18:59:15.977Z,14.00
2019-03-15T19:01:43.326Z,11.90
2019-03-15T19:04:13.917Z,8.93
2019-03-15T19:06:41.322Z,11.27
2019-03-15T19:09:08.758Z,15.37
2019-03-15T19:11:36.129Z,12.23
2019-03-15T19:14:03.442Z,10.57
2019-03-15T19:16:30.981Z,8.27
2019-03-15T19:18:58.424Z,11.80
2019-03-15T19:21:25.818Z,9.53
2019-03-15T19:23:54.295Z,8.70
2019-03-15T19:26:21.784Z,13.20
2019-03-15T19:28:49.373Z,12.03
2019-03-15T19:31:16.863Z,11.00
2019-03-15T19:33:44.133Z,11.10
2019-03-15T19:36:11.676Z,14.00
2019-03-15T19:38:39.180Z,15.00
2019-03-15T19:41:06.701Z,14.83
2019-03-15T19:43:34.416Z,18.37
2019-03-15T19:46:01.733Z,14.90
2019-03-15T19:48:32.084Z,16.40
2019-03-15T19:50:59.592Z,19.37
2019-03-15T19:53:28.544Z,18.47
2019-03-15T19:55:55.928Z,19.97
2019-03-15T19:58:23.548Z,17.10
2019-03-15T20:00:51.001Z,17.40
2019-03-15T20:03:18.591Z,17.23
2019-03-15T20:05:46.148Z,18.87
2019-03-15T20:08:14.596Z,18.50
2019-03-15T20:10:43.758Z,17.07
2019-03-15T20:13:14.086Z,14.40
2019-03-15T20:15:41.364Z,17.47
2019-03-15T20:18:08.745Z,14.17
2019-03-15T20:20:36.098Z,17.07
2019-03-15T20:23:03.425Z,13.23
2019-03-15T20:25:30.910Z,13.43
2019-03-15T20:27:59.956Z,13.07
2019-03-15T20:30:27.306Z,12.37
2019-03-15T20:32:54.715Z,13.80
2019-03-15T20:35:22.376Z,13.07
2019-03-15T20:37:49.744Z,12.97
2019-03-15T20:40:17.137Z,14.10
2019-03-15T20:42:44.442Z,13.73
2019-03-15T20:45:13.238Z,12.70
2019-03-15T20:47:40.638Z,12.20
2019-03-15T20:50:09.145Z,12.40
2019-03-15T20:52:36.455Z,11.17
2019-03-15T20:55:05.407Z,11.67
2019-03-15T20:57:32.745Z,13.87
2019-03-15T21:00:00.046Z,13.50
2019-03-15T21:02:27.378Z,15.13
2019-03-15T21:04:54.746Z,11.03
2019-03-15T21:07:22.201Z,10.33
2019-03-15T21:09:49.501Z,10.23
2019-03-15T21:12:17.154Z,8.63
2019-03-15T21:14:44.484Z,12.93
2019-03-15T21:17:11.880Z,9.70
2019-03-15T21:19:39.421Z,8.77
2019-03-15T21:22:06.789Z,9.00
2019-03-15T21:24:34.107Z,7.47
2019-03-15T21:27:01.531Z,10.00
2019-03-15T21:29:28.867Z,8.07
2019-03-15T21:31:56.232Z,7.20
2019-03-15T21:34:23.571Z,8.37
2019-03-15T21:36:52.631Z,7.67
2019-03-15T21:39:19.981Z,5.63
2019-03-15T21:41:47.268Z,8.97
2019-03-15T21:44:17.221Z,9.40
2019-03-15T21:46:43.743Z,8.07
2019-03-15T21:49:13.454Z,9.70
2019-03-15T21:51:40.820Z,11.17
2019-03-15T21:54:08.131Z,12.63
2019-03-15T21:56:35.428Z,13.33
2019-03-15T21:59:02.819Z,15.87
2019-03-15T22:01:30.348Z,15.90
2019-03-15T22:03:57.697Z,14.60
2019-03-15T22:06:25.142Z,15.50
2019-03-15T22:08:52.442Z,15.70
2019-03-15T22:11:21.402Z,16.53
2019-03-15T22:13:48.984Z,17.80
2019-03-15T22:16:16.302Z,20.93
2019-03-15T22:18:43.763Z,24.43
2019-03-15T22:21:11.101Z,23.97
2019-03-15T22:23:38.487Z,22.20
2019-03-15T22:26:06.006Z,24.37
2019-03-15T22:28:33.425Z,23.87
2019-03-15T22:31:00.769Z,19.03
2019-03-15T22:33:28.327Z,18.20
2019-03-15T22:35:55.631Z,18.83
2019-03-15T22:38:26.462Z,23.67
2019-03-15T22:40:51.931Z,26.43
2019-03-15T22:43:19.714Z,33.30
2019-03-15T22:45:47.120Z,22.03
2019-03-15T22:48:14.495Z,17.90
2019-03-15T22:50:41.851Z,20.40
2019-03-15T22:53:09.185Z,25.03
2019-03-15T22:55:36.596Z,28.53
2019-03-15T22:58:03.931Z,16.60
2019-03-15T23:00:37.853Z,15.70
2019-03-15T23:03:05.461Z,14.27
2019-03-15T23:05:32.998Z,15.53
2019-03-15T23:08:00.413Z,17.13
2019-03-15T23:10:27.762Z,15.63
2019-03-15T23:12:55.075Z,17.87
2019-03-15T23:15:22.790Z,12.60
2019-03-15T23:17:50.114Z,5.83
2019-03-15T23:20:17.475Z,6.13
2019-03-15T23:22:44.856Z,2.83
2019-03-15T23:25:12.188Z,3.90
2019-03-15T23:27:39.506Z,3.63
2019-03-15T23:30:11.055Z,2.20
2019-03-15T23:32:38.414Z,3.07
2019-03-15T23:35:05.734Z,1.33
2019-03-15T23:37:33.056Z,2.20
2019-03-15T23:40:00.477Z,1.13
2019-03-15T23:42:27.762Z,3.20
2019-03-15T23:44:55.097Z,4.00
2019-03-15T23:47:22.667Z,2.33
2019-03-15T23:49:50.038Z,2.93
2019-03-15T23:52:17.408Z,2.80
2019-03-15T23:54:44.741Z,2.03
2019-03-15T23:57:12.051Z,3.33
2019-03-15T23:59:39.372Z,3.13
